Time;durP1;ratioP1;P1;durP2;ratioP2;P2;SDS_P1;SDS_P2;PMS_P1;PMS_P2;Temp;Humidity;BMP_temperature;BMP_pressure;BME280_temperature;BME280_humidity;BME280_pressure;Samples;Min_cycle;Max_cycle;Signal;HPM_P1;HPM_P2
2023/06/20 00:01:58;;;;;;;0.50;0.50;;;;;;;12.33;59.79;99051.09;4821329;29;20050;-78
2023/06/20 00:04:25;;;;;;;0.50;0.50;;;;;;;12.24;60.13;99044.53;4822379;29;20469;-78
2023/06/20 00:06:52;;;;;;;0.40;0.40;;;;;;;12.22;60.17;99044.75;4821327;29;20495;-79
2023/06/20 00:09:19;;;;;;;0.50;0.50;;;;;;;12.24;60.19;99049.94;4822336;29;20046;-78
2023/06/20 00:11:46;;;;;;;0.50;0.50;;;;;;;12.24;60.29;99041.81;4822158;29;20155;-78
2023/06/20 00:14:13;;;;;;;0.50;0.50;;;;;;;12.17;60.40;99047.41;4822189;29;20457;-78
2023/06/20 00:16:40;;;;;;;0.50;0.50;;;;;;;12.18;60.47;99048.22;4822384;29;20058;-78
2023/06/20 00:19:08;;;;;;;0.40;0.40;;;;;;;12.13;60.59;99054.41;4821555;29;20107;-79
2023/06/20 00:21:35;;;;;;;0.50;0.50;;;;;;;12.02;60.61;99048.06;4823088;29;20103;-77
2023/06/20 00:24:02;;;;;;;0.50;0.50;;;;;;;11.94;61.00;99048.50;4822226;29;20088;-78
2023/06/20 00:26:29;;;;;;;0.50;0.50;;;;;;;11.93;61.20;99046.88;4821952;29;20122;-78
2023/06/20 00:28:56;;;;;;;0.50;0.50;;;;;;;11.88;61.57;99044.13;4822233;29;20058;-79
2023/06/20 00:31:24;;;;;;;0.45;0.45;;;;;;;11.91;61.98;99052.53;4820707;29;20062;-78
2023/06/20 00:33:51;;;;;;;0.50;0.50;;;;;;;11.78;62.22;99044.78;4820728;29;20058;-78
2023/06/20 00:36:25;;;;;;;0.50;0.50;;;;;;;11.71;62.63;99047.66;4820692;29;20051;-77
2023/06/20 00:38:53;;;;;;;0.50;0.50;;;;;;;11.58;63.06;99050.72;4822329;29;20485;-78
2023/06/20 00:41:21;;;;;;;0.50;0.50;;;;;;;11.46;63.54;99056.22;4822566;29;20168;-79
2023/06/20 00:43:49;;;;;;;0.50;0.50;;;;;;;11.33;63.99;99047.69;4805660;29;20057;-78
2023/06/20 00:46:19;;;;;;;0.50;0.50;;;;;;;11.29;64.55;99055.44;4821832;29;20149;-77
2023/06/20 00:48:49;;;;;;;0.50;0.50;;;;;;;11.23;64.74;99062.66;4821827;29;20050;-78
2023/06/20 00:51:19;;;;;;;0.60;0.60;;;;;;;11.15;65.03;99051.47;4820434;29;20054;-78
2023/06/20 00:53:47;;;;;;;0.40;0.40;;;;;;;11.14;65.31;99056.06;4821202;29;20054;-78
2023/06/20 00:56:15;;;;;;;0.40;0.40;;;;;;;11.16;65.15;99053.91;4820210;29;20054;-78
2023/06/20 00:58:45;;;;;;;0.50;0.50;;;;;;;11.19;65.09;99058.00;4821826;29;20054;-79
2023/06/20 01:01:12;;;;;;;0.50;0.50;;;;;;;11.17;65.21;99063.66;4821009;29;20082;-78
2023/06/20 01:03:40;;;;;;;0.50;0.50;;;;;;;11.14;65.50;99057.91;4821711;29;20055;-78
2023/06/20 01:06:49;;;;;;;0.50;0.50;;;;;;;11.28;65.14;99061.91;4820452;29;20054;-78
2023/06/20 01:09:38;;;;;;;0.50;0.50;;;;;;;11.31;65.07;99057.91;4732764;30;20056;-78
2023/06/20 01:12:35;;;;;;;0.50;0.50;;;;;;;11.33;65.02;99053.09;4718381;30;20056;-78
2023/06/20 01:15:20;;;;;;;0.50;0.50;;;;;;;11.34;65.27;99052.81;4747513;30;20559;-76
2023/06/20 01:17:53;;;;;;;0.50;0.50;;;;;;;11.26;65.50;99055.94;4732835;30;20118;-77
2023/06/20 01:20:27;;;;;;;0.50;0.50;;;;;;;11.21;66.11;99048.56;4732750;30;20433;-78
2023/06/20 01:23:14;;;;;;;0.55;0.55;;;;;;;11.25;65.96;99057.03;4732654;30;20052;-78
2023/06/20 01:26:11;;;;;;;0.50;0.50;;;;;;;11.26;66.20;99059.47;4747448;30;20500;-78
2023/06/20 01:29:32;;;;;;;0.50;0.50;;;;;;;11.32;66.04;99054.97;4680084;30;20088;-78
2023/06/20 01:32:02;;;;;;;0.50;0.50;;;;;;;11.28;65.89;99051.13;4676993;30;20573;-77
2023/06/20 01:34:31;;;;;;;0.50;0.50;;;;;;;11.31;66.11;99055.22;4672937;30;20595;-78
2023/06/20 01:36:59;;;;;;;0.50;0.50;;;;;;;11.33;66.17;99047.69;4676551;30;20053;-77
2023/06/20 01:39:37;;;;;;;0.50;0.50;;;;;;;11.44;66.14;99053.00;4680216;30;20062;-78
2023/06/20 01:42:05;;;;;;;0.50;0.50;;;;;;;11.39;65.99;99049.38;4665514;30;20066;-79
2023/06/20 01:44:34;;;;;;;0.50;0.50;;;;;;;11.42;66.03;99057.81;4746944;30;20183;-78
2023/06/20 01:47:02;;;;;;;0.50;0.50;;;;;;;11.43;66.10;99058.63;4734844;30;20528;-76
2023/06/20 01:49:30;;;;;;;0.50;0.50;;;;;;;11.44;66.11;99050.28;4732788;30;20056;-77
2023/06/20 01:51:59;;;;;;;0.50;0.50;;;;;;;11.52;65.94;99049.03;4735412;30;20603;-78
2023/06/20 01:54:29;;;;;;;0.50;0.50;;;;;;;11.60;66.01;99050.50;4764651;30;20060;-78
2023/06/20 01:57:00;;;;;;;0.50;0.50;;;;;;;11.77;65.84;99056.63;4764868;30;20086;-77
2023/06/20 01:59:27;;;;;;;0.40;0.40;;;;;;;11.94;65.27;99059.31;4746392;30;20165;-77
2023/06/20 02:01:57;;;;;;;0.45;0.45;;;;;;;12.08;65.29;99057.88;4744128;30;20143;-78
2023/06/20 02:04:25;;;;;;;0.50;0.50;;;;;;;12.21;64.68;99058.56;4745260;29;20064;-77
2023/06/20 02:06:52;;;;;;;0.50;0.50;;;;;;;12.32;64.14;99063.81;4811767;29;20054;-78
2023/06/20 02:09:19;;;;;;;0.50;0.50;;;;;;;12.43;64.27;99062.06;4807943;29;20054;-79
2023/06/20 02:11:47;;;;;;;0.50;0.50;;;;;;;12.45;63.91;99053.66;4814611;29;20149;-78
2023/06/20 02:14:15;;;;;;;0.50;0.50;;;;;;;12.56;64.14;99060.81;4820560;29;20050;-78
2023/06/20 02:16:42;;;;;;;0.47;0.47;;;;;;;12.62;63.96;99058.97;4823043;29;20046;-79
2023/06/20 02:19:10;;;;;;;0.50;0.50;;;;;;;12.69;63.68;99059.59;4816189;29;20092;-77
2023/06/20 02:21:58;;;;;;;0.50;0.50;;;;;;;12.75;63.76;99059.34;4802217;29;20054;-77
2023/06/20 02:24:26;;;;;;;0.50;0.50;;;;;;;12.85;63.44;99055.94;4819399;29;20062;-78
2023/06/20 02:26:54;;;;;;;0.40;0.40;;;;;;;12.92;62.93;99053.81;4804683;29;20431;-79
2023/06/20 02:29:24;;;;;;;0.50;0.50;;;;;;;12.94;62.45;99046.25;4811423;29;20050;-79
2023/06/20 02:31:56;;;;;;;0.50;0.50;;;;;;;13.12;61.96;99055.06;4805028;29;20058;-79
2023/06/20 02:34:23;;;;;;;0.50;0.50;;;;;;;13.14;61.77;99056.44;4804790;29;20083;-79
2023/06/20 02:36:52;;;;;;;0.40;0.40;;;;;;;13.19;61.55;99058.34;4804632;29;20104;-78
2023/06/20 02:39:24;;;;;;;0.50;0.50;;;;;;;13.21;61.22;99050.78;4798717;29;20125;-76
2023/06/20 02:41:51;;;;;;;0.40;0.40;;;;;;;13.35;60.59;99057.41;4822403;29;20050;-78
2023/06/20 02:44:18;;;;;;;0.50;0.50;;;;;;;13.40;60.40;99059.34;4823280;29;20537;-78
2023/06/20 02:46:54;;;;;;;0.50;0.50;;;;;;;13.41;60.29;99058.25;4822428;29;20054;-77
2023/06/20 02:49:39;;;;;;;0.50;0.50;;;;;;;13.43;60.91;99054.22;4818211;29;20073;-78
2023/06/20 02:52:17;;;;;;;0.50;0.50;;;;;;;13.54;60.53;99055.09;4812260;29;20059;-78
2023/06/20 02:55:08;;;;;;;0.50;0.50;;;;;;;13.61;60.42;99065.69;4822717;29;20524;-78
2023/06/20 02:57:39;;;;;;;0.50;0.50;;;;;;;13.59;60.49;99062.44;4805798;29;20078;-77
2023/06/20 03:00:09;;;;;;;0.50;0.50;;;;;;;13.62;60.71;99062.75;4805991;29;20050;-78
2023/06/20 03:03:03;;;;;;;0.50;0.50;;;;;;;13.61;60.40;99055.66;4804022;29;20062;-78
2023/06/20 03:05:35;;;;;;;0.50;0.50;;;;;;;13.64;60.54;99057.84;4791950;29;20457;-79
2023/06/20 03:08:03;;;;;;;0.50;0.50;;;;;;;13.66;60.66;99049.47;4833707;29;20093;-78
2023/06/20 03:10:34;;;;;;;0.40;0.40;;;;;;;13.69;60.39;99046.22;4818217;29;20095;-78
2023/06/20 03:13:05;;;;;;;0.40;0.40;;;;;;;13.72;60.45;99034.81;4829741;29;20068;-77
2023/06/20 03:15:33;;;;;;;0.40;0.40;;;;;;;13.65;60.15;99021.53;4821100;29;20383;-77
2023/06/20 03:18:00;;;;;;;0.47;0.47;;;;;;;13.64;59.98;99041.56;4803252;29;20051;-78
2023/06/20 03:20:28;;;;;;;0.50;0.50;;;;;;;13.52;60.10;99041.00;4818347;29;20053;-79
2023/06/20 03:22:57;;;;;;;0.40;0.40;;;;;;;13.51;60.12;99054.81;4833844;29;20046;-77
2023/06/20 03:25:26;;;;;;;0.50;0.50;;;;;;;13.43;60.19;99043.38;4825802;29;20141;-79
2023/06/20 03:27:54;;;;;;;0.50;0.50;;;;;;;13.46;60.28;99050.16;4829710;29;20144;-78
2023/06/20 03:30:22;;;;;;;0.50;0.50;;;;;;;13.55;60.25;99051.31;4828764;29;20414;-79
2023/06/20 03:32:50;;;;;;;0.45;0.45;;;;;;;13.73;59.65;99050.03;4827919;29;20046;-78
2023/06/20 03:35:17;;;;;;;0.50;0.50;;;;;;;13.91;59.10;99042.53;4818682;29;20082;-75
2023/06/20 03:37:45;;;;;;;0.50;0.50;;;;;;;14.09;59.28;99036.63;4818273;29;20155;-78
2023/06/20 03:40:12;;;;;;;0.45;0.45;;;;;;;14.26;59.06;99039.13;4812940;29;20050;-76
2023/06/20 03:42:42;;;;;;;0.50;0.50;;;;;;;14.42;58.60;99045.38;4824687;29;20111;-78
2023/06/20 03:45:09;;;;;;;0.50;0.50;;;;;;;14.53;58.14;99041.63;4822496;29;20058;-77
2023/06/20 03:47:38;;;;;;;0.50;0.50;;;;;;;14.72;57.24;99050.88;4834334;29;20111;-77
2023/06/20 03:50:06;;;;;;;0.50;0.50;;;;;;;14.84;56.21;99041.66;4830389;29;20046;-76
2023/06/20 03:52:34;;;;;;;0.50;0.50;;;;;;;14.98;54.38;99029.16;4823602;29;20586;-78
2023/06/20 03:55:01;;;;;;;0.40;0.40;;;;;;;15.21;52.70;99032.38;4820943;29;20114;-78
2023/06/20 03:57:29;;;;;;;0.40;0.40;;;;;;;15.41;50.12;99043.22;4820861;29;20138;-78
2023/06/20 03:59:56;;;;;;;0.50;0.50;;;;;;;15.63;49.23;99044.81;4825895;29;20054;-78
2023/06/20 04:02:29;;;;;;;0.40;0.40;;;;;;;15.78;48.53;99042.09;4806425;29;20057;-78
2023/06/20 04:04:57;;;;;;;0.40;0.40;;;;;;;15.91;49.29;99032.50;4820632;29;20046;-78
2023/06/20 04:07:24;;;;;;;0.47;0.47;;;;;;;16.02;47.74;99034.06;4821931;29;20108;-77
2023/06/20 04:09:51;;;;;;;0.40;0.40;;;;;;;16.15;46.88;99029.91;4820806;29;20110;-79
2023/06/20 04:12:18;;;;;;;0.40;0.40;;;;;;;16.27;46.09;99035.03;4817595;29;20084;-78
2023/06/20 04:14:45;;;;;;;0.40;0.40;;;;;;;16.34;45.47;99030.91;4800320;29;20158;-78
2023/06/20 04:17:12;;;;;;;0.40;0.40;;;;;;;16.41;45.12;99023.25;4810521;29;20069;-78
2023/06/20 04:19:39;;;;;;;0.40;0.40;;;;;;;16.56;44.82;99035.94;4802564;29;20058;-79
2023/06/20 04:22:08;;;;;;;0.30;0.30;;;;;;;16.63;44.29;99030.16;4803929;29;20064;-78
2023/06/20 04:24:36;;;;;;;0.40;0.40;;;;;;;16.60;44.61;99020.66;4802304;29;20576;-79
2023/06/20 04:27:03;;;;;;;0.40;0.40;;;;;;;16.66;44.46;99024.16;4811717;29;20057;-79
2023/06/20 04:29:30;;;;;;;0.40;0.40;;;;;;;16.78;44.76;99016.47;4814208;29;20058;-78
2023/06/20 04:31:57;;;;;;;0.40;0.40;;;;;;;16.80;44.11;99016.19;4811511;29;20149;-78
2023/06/20 04:34:25;;;;;;;0.40;0.40;;;;;;;17.00;43.93;99023.38;4812899;29;20055;-78
2023/06/20 04:36:52;;;;;;;0.40;0.40;;;;;;;17.11;43.85;99024.91;4807388;29;20119;-78
2023/06/20 04:39:19;;;;;;;0.40;0.40;;;;;;;17.15;43.76;99015.06;4816218;29;20054;-77
2023/06/20 04:41:48;;;;;;;0.30;0.30;;;;;;;17.27;43.10;99031.84;4802133;29;20054;-78
2023/06/20 04:44:15;;;;;;;0.38;0.38;;;;;;;17.28;42.57;99030.72;4802380;29;20066;-78
2023/06/20 04:46:42;;;;;;;0.40;0.40;;;;;;;17.36;42.34;99017.56;4811420;29;20053;-78
2023/06/20 04:49:09;;;;;;;0.40;0.40;;;;;;;17.41;42.28;99017.53;4799523;29;20056;-78
2023/06/20 04:51:40;;;;;;;0.40;0.40;;;;;;;17.54;42.11;99025.00;4813224;29;20058;-78
2023/06/20 04:54:08;;;;;;;0.40;0.40;;;;;;;17.64;42.05;99027.63;4802170;29;20077;-80
2023/06/20 04:56:40;;;;;;;0.40;0.40;;;;;;;17.79;41.90;99031.28;4803299;29;20062;-79
2023/06/20 04:59:08;;;;;;;0.40;0.40;;;;;;;17.88;41.60;99021.38;4819421;29;20209;-78
2023/06/20 05:01:35;;;;;;;0.40;0.40;;;;;;;17.95;41.33;99024.56;4812571;29;20157;-79
2023/06/20 05:04:03;;;;;;;0.40;0.40;;;;;;;18.03;40.79;99013.00;4805704;29;20097;-80
2023/06/20 05:06:31;;;;;;;0.40;0.40;;;;;;;18.10;40.56;99020.81;4801822;29;20414;-76
2023/06/20 05:08:59;;;;;;;0.40;0.40;;;;;;;18.25;39.97;99025.25;4787115;29;20057;-79
2023/06/20 05:11:26;;;;;;;0.40;0.40;;;;;;;18.28;39.75;99024.66;4804387;29;20134;-79
2023/06/20 05:13:54;;;;;;;0.40;0.40;;;;;;;18.33;39.41;99030.06;4811926;29;20066;-79
2023/06/20 05:16:22;;;;;;;0.40;0.40;;;;;;;18.35;38.79;99020.44;4804274;29;20086;-79
2023/06/20 05:18:50;;;;;;;0.40;0.40;;;;;;;18.39;38.88;99016.03;4804346;29;20137;-79
2023/06/20 05:21:16;;;;;;;0.40;0.40;;;;;;;18.34;38.61;98996.19;4801720;29;20054;-80
2023/06/20 05:23:43;;;;;;;0.30;0.30;;;;;;;18.50;38.35;98999.50;4803034;29;20051;-79
2023/06/20 05:26:11;;;;;;;0.40;0.40;;;;;;;18.75;37.94;99011.94;4802912;29;20057;-79
2023/06/20 05:28:39;;;;;;;0.40;0.40;;;;;;;18.86;37.54;99013.41;4802753;29;20081;-79
2023/06/20 05:31:06;;;;;;;0.32;0.32;;;;;;;18.94;36.89;99010.03;4814475;29;20119;-78
2023/06/20 05:33:33;;;;;;;0.30;0.30;;;;;;;18.95;36.73;99000.69;4820815;29;20436;-80
2023/06/20 05:36:00;;;;;;;0.40;0.40;;;;;;;19.06;36.68;98998.59;4820897;29;20066;-78
2023/06/20 05:38:31;;;;;;;0.40;0.40;;;;;;;19.25;36.80;98998.53;4820929;29;20137;-78
2023/06/20 05:40:59;;;;;;;0.35;0.35;;;;;;;19.39;36.39;99004.81;4806072;29;20533;-79
2023/06/20 05:43:26;;;;;;;0.30;0.30;;;;;;;19.32;36.18;98990.75;4824334;29;20065;-79
2023/06/20 05:45:53;;;;;;;0.30;0.30;;;;;;;19.32;36.06;98988.00;4822739;29;20192;-78
2023/06/20 05:48:23;;;;;;;0.40;0.40;;;;;;;19.47;36.03;99001.41;4823960;29;20054;-78
2023/06/20 05:50:54;;;;;;;0.40;0.40;;;;;;;19.66;36.18;98989.53;4824127;29;20111;-79
2023/06/20 05:53:22;;;;;;;0.40;0.40;;;;;;;19.80;35.67;99006.81;4822773;29;20530;-78
2023/06/20 05:55:52;;;;;;;0.40;0.40;;;;;;;19.78;35.78;98989.06;4823962;29;20058;-78
2023/06/20 05:58:19;;;;;;;0.38;0.38;;;;;;;19.83;35.98;98992.50;4822731;29;20426;-78
2023/06/20 06:00:46;;;;;;;0.40;0.40;;;;;;;19.90;35.77;98984.69;4822971;29;20206;-79
2023/06/20 06:03:13;;;;;;;0.40;0.40;;;;;;;20.05;35.33;98983.53;4824011;29;20058;-78
2023/06/20 06:05:41;;;;;;;0.30;0.30;;;;;;;20.07;35.39;98977.75;4823972;29;20454;-77
2023/06/20 06:08:08;;;;;;;0.30;0.30;;;;;;;20.07;35.18;98980.47;4823915;29;20502;-78
2023/06/20 06:13:39;;;;;;;0.40;0.40;;;;;;;20.33;34.51;98976.06;4814079;29;20058;-79
2023/06/20 06:16:07;;;;;;;0.38;0.38;;;;;;;20.30;34.40;98982.13;4824042;29;20062;-80
2023/06/20 06:18:34;;;;;;;0.40;0.40;;;;;;;20.43;34.18;98965.94;4823697;29;20427;-80
2023/06/20 06:21:20;;;;;;;0.40;0.40;;;;;;;20.95;33.92;98983.63;4823540;29;20153;-79
2023/06/20 06:23:49;;;;;;;0.40;0.40;;;;;;;21.25;33.43;98974.91;4822122;29;20549;-79
2023/06/20 06:26:18;;;;;;;0.40;0.40;;;;;;;21.44;32.93;98983.72;4823444;29;20058;-78
2023/06/20 06:28:45;;;;;;;0.40;0.40;;;;;;;21.72;32.96;98980.75;4823809;29;20047;-79
2023/06/20 06:31:20;;;;;;;0.40;0.40;;;;;;;21.80;32.74;98971.72;4822444;29;20461;-79
2023/06/20 06:33:47;;;;;;;0.40;0.40;;;;;;;21.88;33.24;98981.94;4822465;29;20065;-77
2023/06/20 06:36:17;;;;;;;0.43;0.43;;;;;;;22.15;32.39;98980.03;4822269;29;20058;-78
2023/06/20 06:38:49;;;;;;;0.40;0.40;;;;;;;21.98;32.79;98973.38;4823644;29;20429;-78
2023/06/20 06:41:19;;;;;;;0.40;0.40;;;;;;;21.78;32.71;98972.06;4823084;29;20065;-79
2023/06/20 06:46:56;;;;;;;0.40;0.40;;;;;;;21.65;33.48;98964.75;4807102;29;20540;-79
2023/06/20 06:49:23;;;;;;;0.30;0.30;;;;;;;21.69;33.39;98967.66;4821794;29;20057;-78
2023/06/20 06:51:50;;;;;;;0.40;0.40;;;;;;;21.77;33.42;98961.38;4814689;29;20074;-79
2023/06/20 06:54:17;;;;;;;0.40;0.40;;;;;;;21.97;33.28;98976.44;4804781;29;20079;-79
2023/06/20 06:56:44;;;;;;;0.40;0.40;;;;;;;21.94;33.08;98974.34;4804946;29;20069;-79
2023/06/20 07:01:58;;;;;;;0.40;0.40;;;;;;;22.50;32.38;98964.38;4805278;29;20094;-79
2023/06/20 07:04:28;;;;;;;0.40;0.40;;;;;;;22.62;32.71;98960.97;4804892;29;20065;-78
2023/06/20 07:06:55;;;;;;;0.40;0.40;;;;;;;22.80;32.50;98968.06;4808128;29;20062;-79
2023/06/20 07:12:29;;;;;;;0.40;0.40;;;;;;;22.82;32.58;98948.50;4809926;29;20347;-78
2023/06/20 07:15:02;;;;;;;0.30;0.30;;;;;;;22.99;32.44;98953.16;4808452;29;20051;-79
2023/06/20 07:17:29;;;;;;;0.40;0.40;;;;;;;23.13;31.48;98949.06;4815334;29;20507;-79
2023/06/20 07:19:57;;;;;;;0.40;0.40;;;;;;;23.20;30.86;98962.31;4819831;29;20054;-79
2023/06/20 07:22:24;;;;;;;0.40;0.40;;;;;;;23.22;29.78;98960.06;4810260;29;20080;-79
2023/06/20 07:25:16;;;;;;;0.40;0.40;;;;;;;23.08;30.10;98959.44;4809929;29;20502;-79
2023/06/20 07:27:47;;;;;;;0.30;0.30;;;;;;;23.29;30.37;98951.28;4807986;29;20062;-80
2023/06/20 07:30:14;;;;;;;0.40;0.40;;;;;;;23.42;29.55;98935.66;4819856;29;20128;-79
2023/06/20 07:32:41;;;;;;;0.30;0.30;;;;;;;23.44;29.94;98941.66;4803416;29;20111;-80
2023/06/20 07:35:09;;;;;;;0.30;0.30;;;;;;;23.23;29.71;98956.16;4813650;29;20499;-79
2023/06/20 07:37:36;;;;;;;0.30;0.30;;;;;;;23.17;30.04;98945.66;4808382;29;20410;-79
2023/06/20 07:40:06;;;;;;;0.40;0.40;;;;;;;22.88;29.95;98942.47;4813473;29;20081;-79
2023/06/20 07:42:33;;;;;;;0.38;0.38;;;;;;;22.59;30.28;98928.63;4804442;29;20058;-78
2023/06/20 07:45:01;;;;;;;0.30;0.30;;;;;;;22.71;30.65;98942.50;4808523;29;20050;-80
2023/06/20 07:47:29;;;;;;;0.30;0.30;;;;;;;22.93;30.30;98944.25;4807576;29;20065;-79
2023/06/20 07:49:56;;;;;;;0.30;0.30;;;;;;;22.93;30.44;98949.75;4812665;29;20216;-79
2023/06/20 07:52:23;;;;;;;0.30;0.30;;;;;;;22.83;30.34;98944.59;4818558;29;20181;-79
2023/06/20 07:54:50;;;;;;;0.43;0.43;;;;;;;23.04;30.46;98950.22;4817637;29;20050;-81
2023/06/20 07:57:18;;;;;;;0.30;0.30;;;;;;;23.32;29.84;98951.44;4817550;29;20073;-79
2023/06/20 07:59:45;;;;;;;0.40;0.40;;;;;;;23.51;29.80;98944.69;4812403;29;20476;-81
2023/06/20 08:02:12;;;;;;;0.30;0.30;;;;;;;23.72;29.64;98942.00;4805870;29;20050;-81
2023/06/20 08:04:39;;;;;;;0.30;0.30;;;;;;;23.50;29.85;98907.28;4804607;29;20111;-81
2023/06/20 08:07:06;;;;;;;0.40;0.40;;;;;;;23.92;29.49;98935.72;4805857;29;20061;-80
2023/06/20 08:09:33;;;;;;;0.40;0.40;;;;;;;23.94;29.50;98921.63;4800420;29;20063;-81
2023/06/20 08:12:01;;;;;;;0.40;0.40;;;;;;;23.72;29.11;98909.75;4805442;29;20051;-81
2023/06/20 08:14:28;;;;;;;0.40;0.40;;;;;;;23.62;29.62;98920.34;4807457;29;20166;-79
2023/06/20 08:16:55;;;;;;;0.35;0.35;;;;;;;23.47;29.86;98928.03;4473227;29;10000546;-80
2023/06/20 08:22:08;;;;;;;0.40;0.40;;;;;;;23.89;29.29;98894.25;4804764;29;20051;-79
2023/06/20 08:24:35;;;;;;;0.40;0.40;;;;;;;23.87;29.65;98896.53;4801134;29;20510;-79
2023/06/20 08:27:03;;;;;;;0.40;0.40;;;;;;;24.07;28.73;98898.50;4810485;29;20058;-79
2023/06/20 08:29:30;;;;;;;0.47;0.47;;;;;;;23.87;29.37;98893.78;4784497;29;20065;-80
2023/06/20 08:34:49;;;;;;;0.40;0.40;;;;;;;24.07;29.40;98925.25;4811294;29;20062;-78
2023/06/20 08:37:23;;;;;;;0.40;0.40;;;;;;;24.34;28.50;98896.31;4810588;29;20057;-79
2023/06/20 08:39:50;;;;;;;0.40;0.40;;;;;;;24.49;28.71;98909.50;4816851;29;20054;-82
2023/06/20 08:45:27;;;;;;;0.20;0.20;;;;;;;26.05;27.84;98886.59;4803670;29;20059;-81
2023/06/20 08:47:59;;;;;;;0.50;0.50;;;;;;;25.66;27.03;98908.31;4810635;29;20492;-81
2023/06/20 08:50:48;;;;;;;0.40;0.40;;;;;;;25.61;26.48;98890.00;4817959;29;20754;-80
2023/06/20 08:53:53;;;;;;;0.40;0.40;;;;;;;25.82;26.10;98905.63;4818555;29;20042;-78
2023/06/20 08:59:06;;;;;;;0.40;0.40;;;;;;;25.33;26.69;98883.59;4791703;29;20508;-80
2023/06/20 09:05:02;;;;;;;0.40;0.40;;;;;;;25.33;27.14;98909.25;4817221;29;20100;-79
2023/06/20 09:07:37;;;;;;;0.50;0.50;;;;;;;25.43;26.91;98881.16;4814712;29;20074;-81
2023/06/20 09:10:06;;;;;;;0.50;0.50;;;;;;;25.99;26.66;98899.84;4802841;29;20061;-79
2023/06/20 09:12:48;;;;;;;0.50;0.50;;;;;;;26.29;25.91;98889.28;4808159;29;20143;-79
2023/06/20 09:15:34;;;;;;;0.50;0.50;;;;;;;27.02;25.45;98887.28;4814864;29;20047;-79
2023/06/20 09:18:01;;;;;;;0.40;0.40;;;;;;;26.85;25.79;98891.19;4816591;29;20072;-81
2023/06/20 09:20:30;;;;;;;0.40;0.40;;;;;;;26.94;25.73;98885.47;4814948;29;20057;-79
2023/06/20 09:25:44;;;;;;;0.30;0.30;;;;;;;25.27;27.35;98878.28;4799480;29;20062;-79
2023/06/20 09:28:17;;;;;;;0.20;0.20;;;;;;;25.51;27.05;98865.59;4802101;29;20050;-78
2023/06/20 09:30:47;;;;;;;0.20;0.20;;;;;;;25.92;26.77;98892.16;4808662;29;20073;-79
2023/06/20 09:33:15;;;;;;;0.50;0.50;;;;;;;25.47;26.97;98864.69;4812095;29;20047;-79
2023/06/20 09:35:43;;;;;;;0.60;0.60;;;;;;;26.45;26.01;98880.22;4810377;29;20058;-79
2023/06/20 09:40:55;;;;;;;0.50;0.50;;;;;;;27.37;25.24;98856.09;4799547;29;20518;-80
2023/06/20 09:43:41;;;;;;;0.20;0.20;;;;;;;26.79;25.67;98874.06;4789938;29;20065;-80
2023/06/20 09:46:09;;;;;;;0.50;0.50;;;;;;;26.90;25.79;98840.31;4803857;29;20058;-80
2023/06/20 09:48:38;;;;;;;0.50;0.50;;;;;;;28.05;24.08;98866.72;4806786;29;20485;-78
2023/06/20 09:51:08;;;;;;;0.20;0.20;;;;;;;27.98;24.04;98846.38;4807156;29;20455;-79
2023/06/20 09:56:30;;;;;;;0.55;0.55;;;;;;;26.83;25.15;98846.47;4808683;29;20093;-79
2023/06/20 09:59:00;;;;;;;0.50;0.50;;;;;;;27.86;24.70;98869.50;4802994;29;20051;-79
2023/06/20 10:01:28;;;;;;;0.50;0.50;;;;;;;28.27;24.20;98850.53;4802806;29;20412;-78
2023/06/20 10:06:47;;;;;;;0.20;0.20;;;;;;;27.40;24.81;98847.09;4810906;29;20086;-80
2023/06/20 10:09:16;;;;;;;0.50;0.50;;;;;;;28.13;23.75;98844.69;4799037;29;20155;-79
2023/06/20 10:12:02;;;;;;;0.60;0.60;;;;;;;28.74;22.78;98825.28;4806887;29;20059;-80
2023/06/20 10:14:48;;;;;;;;;;;;;;;29.06;22.92;98852.00;4812693;29;20113;-80
2023/06/20 10:20:38;;;;;;;0.50;0.50;;;;;;;27.87;24.20;98837.84;4801524;29;20062;-81
2023/06/20 10:23:07;;;;;;;0.20;0.20;;;;;;;27.06;24.60;98820.91;4801087;29;20147;-79
2023/06/20 10:25:36;;;;;;;0.20;0.20;;;;;;;26.07;25.80;98834.50;4800892;29;20047;-82
2023/06/20 10:28:05;;;;;;;0.20;0.20;;;;;;;25.29;26.79;98830.97;4820203;29;20094;-81
2023/06/20 10:30:53;;;;;;;0.20;0.20;;;;;;;25.07;27.38;98843.28;4821628;29;20077;-81
2023/06/20 10:33:45;;;;;;;0.70;0.70;;;;;;;25.79;26.86;98831.69;4804820;29;20082;-82
2023/06/20 10:36:31;;;;;;;0.50;0.50;;;;;;;28.18;24.33;98830.53;4806105;29;20515;-80
2023/06/20 10:39:02;;;;;;;0.40;0.40;;;;;;;29.37;23.26;98826.69;4804272;29;20054;-81
2023/06/20 10:41:29;;;;;;;0.30;0.30;;;;;;;28.45;23.54;98828.69;4805816;29;20058;-80
2023/06/20 10:44:00;;;;;;;0.28;0.28;;;;;;;26.63;25.28;98811.53;4812945;29;20054;-80
2023/06/20 10:46:36;;;;;;;0.20;0.20;;;;;;;26.69;25.80;98833.06;4817927;29;20055;-81
2023/06/20 10:54:36;;;;;;;0.40;0.40;;;;;;;26.66;25.82;98810.81;4804194;29;20087;-82
2023/06/20 11:00:13;;;;;;;0.20;0.20;;;;;;;26.83;25.46;98796.63;4806040;29;20051;-81
2023/06/20 11:02:58;;;;;;;0.70;0.70;;;;;;;27.88;25.46;98814.50;4806272;29;20076;-80
2023/06/20 11:05:28;;;;;;;0.60;0.60;;;;;;;30.27;22.88;98808.41;4816029;29;20605;-80
2023/06/20 11:07:56;;;;;;;0.60;0.60;;;;;;;30.87;21.51;98808.22;4812578;29;20070;-81
2023/06/20 11:13:18;;;;;;;0.20;0.20;;;;;;;31.77;20.75;98794.84;4808619;29;20047;-80
2023/06/20 11:16:03;;;;;;;0.20;0.20;;;;;;;29.93;22.50;98802.84;4806508;29;20055;-81
2023/06/20 11:21:17;;;;;;;0.10;0.10;;;;;;;29.36;23.08;98791.72;4802961;29;20065;-79
2023/06/20 11:24:03;;;;;;;0.10;0.10;;;;;;;28.10;24.63;98802.63;4810367;29;20089;-81
2023/06/20 11:26:34;;;;;;;0.50;0.50;;;;;;;29.30;23.61;98784.91;4806226;29;20141;-81
2023/06/20 11:29:03;;;;;;;0.50;0.50;;;;;;;30.50;21.87;98790.75;4803112;29;20066;-81
2023/06/20 11:31:40;;;;;;;0.50;0.50;;;;;;;31.57;21.08;98782.41;4812203;29;20074;-81
2023/06/20 11:34:10;;;;;;;0.47;0.47;;;;;;;32.25;20.82;98763.94;4818741;29;20087;-82
2023/06/20 11:36:56;;;;;;;0.40;0.40;;;;;;;32.90;19.74;98775.19;4808957;29;20778;-80
2023/06/20 11:39:24;;;;;;;0.50;0.50;;;;;;;31.85;20.55;98760.22;4810460;29;20050;-80
2023/06/20 11:42:16;;;;;;;0.40;0.40;;;;;;;31.23;21.30;98780.59;4808946;29;20046;-81
2023/06/20 11:44:43;;;;;;;;;;;;;;;31.57;21.56;98782.41;4817122;29;20190;-80
2023/06/20 11:47:10;;;;;;;0.30;0.30;;;;;;;30.02;22.32;98775.50;4810682;29;19929;-81
2023/06/20 11:52:44;;;;;;;0.50;0.50;;;;;;;31.28;21.32;98765.50;4823249;29;20114;-80
2023/06/20 11:55:11;;;;;;;0.50;0.50;;;;;;;31.31;20.71;98765.50;4802565;29;20586;-81
2023/06/20 12:00:47;;;;;;;0.20;0.20;;;;;;;30.00;22.25;98768.72;4805225;29;20087;-81
2023/06/20 12:03:16;;;;;;;0.20;0.20;;;;;;;28.46;23.40;98749.81;4807575;29;20069;-80
2023/06/20 12:05:44;;;;;;;0.20;0.20;;;;;;;27.66;24.46;98744.72;4803554;29;20051;-79
2023/06/20 12:08:34;;;;;;;0.20;0.20;;;;;;;27.17;25.30;98753.53;4812999;29;20066;-81
2023/06/20 12:14:05;;;;;;;0.20;0.20;;;;;;;26.46;26.19;98743.47;4802515;29;20050;-80
2023/06/20 12:19:56;;;;;;;0.57;0.57;;;;;;;28.34;24.56;98749.97;4807512;29;20149;-80
2023/06/20 12:22:25;;;;;;;0.30;0.30;;;;;;;28.52;24.09;98749.13;4813103;29;20054;-85
2023/06/20 12:24:52;;;;;;;0.55;0.55;;;;;;;30.44;22.09;98743.78;4805481;29;20055;-81
2023/06/20 12:27:19;;;;;;;0.60;0.60;;;;;;;30.92;21.71;98720.69;4814459;29;20054;-81
2023/06/20 12:29:46;;;;;;;0.60;0.60;;;;;;;32.49;20.20;98747.66;4810707;29;20055;-80
2023/06/20 12:32:13;;;;;;;0.50;0.50;;;;;;;33.53;19.33;98734.34;4802976;29;20074;-80
2023/06/20 12:34:40;;;;;;;0.30;0.30;;;;;;;33.65;18.81;98741.50;4812026;29;20774;-82
2023/06/20 12:37:07;;;;;;;0.10;0.10;;;;;;;30.87;20.75;98721.84;4459004;29;10000205;-80
2023/06/20 12:39:35;;;;;;;0.10;0.10;;;;;;;28.90;23.03;98719.59;4817530;29;20088;-79
2023/06/20 12:42:02;;;;;;;0.10;0.10;;;;;;;27.98;24.20;98743.75;4818558;29;20117;-80
2023/06/20 12:44:48;;;;;;;0.20;0.20;;;;;;;27.41;24.66;98740.63;4809320;29;20418;-78
2023/06/20 12:47:16;;;;;;;0.20;0.20;;;;;;;27.72;24.38;98714.72;4783385;29;20472;-80
2023/06/20 12:53:07;;;;;;;0.20;0.20;;;;;;;27.22;24.99;98731.13;4799370;29;20058;-80
2023/06/20 12:55:34;;;;;;;0.20;0.20;;;;;;;26.71;25.93;98728.34;4790780;29;20137;-80
2023/06/20 12:58:38;;;;;;;0.10;0.10;;;;;;;26.23;26.20;98730.28;4802970;29;20154;-81
2023/06/20 13:01:24;;;;;;;0.20;0.20;;;;;;;26.01;27.01;98730.88;4809395;29;20192;-79
2023/06/20 13:06:37;;;;;;;0.30;0.30;;;;;;;26.33;26.52;98715.09;4812654;29;20167;-80